createdAt,value
2023-09-03T00:01:19.769Z,25.90
2023-09-03T00:03:46.324Z,23.88
2023-09-03T00:06:12.892Z,24.60
2023-09-03T00:08:39.331Z,27.65
2023-09-03T00:11:05.799Z,24.50
2023-09-03T00:13:32.275Z,29.52
2023-09-03T00:15:58.718Z,24.17
2023-09-03T00:18:25.431Z,25.67
2023-09-03T00:20:56.759Z,25.48
2023-09-03T00:23:23.425Z,25.80
2023-09-03T00:25:50.210Z,25.75
2023-09-03T00:28:16.649Z,23.33
2023-09-03T00:30:43.324Z,25.90
2023-09-03T00:33:10.424Z,25.00
2023-09-03T00:35:37.437Z,25.85
2023-09-03T00:38:04.009Z,25.27
2023-09-03T00:40:38.066Z,25.58
2023-09-03T00:43:04.660Z,24.45
2023-09-03T00:45:31.267Z,22.95
2023-09-03T00:47:58.267Z,24.38
2023-09-03T00:50:24.806Z,25.95
2023-09-03T00:52:51.586Z,23.25
2023-09-03T00:55:18.115Z,22.65
2023-09-03T00:57:45.049Z,25.08
2023-09-03T01:00:12.308Z,24.98
2023-09-03T01:02:38.798Z,24.15
2023-09-03T01:05:05.594Z,25.10
2023-09-03T01:07:32.117Z,22.33
2023-09-03T01:09:58.662Z,23.90
2023-09-03T01:12:38.670Z,24.10
2023-09-03T01:15:17.789Z,22.40
2023-09-03T01:17:53.480Z,22.10
2023-09-03T01:20:27.514Z,20.85
2023-09-03T01:23:26.671Z,21.77
2023-09-03T01:25:59.105Z,21.38
2023-09-03T01:28:30.439Z,20.55
2023-09-03T01:31:03.419Z,21.65
2023-09-03T01:33:31.745Z,19.98
2023-09-03T01:36:00.088Z,18.65
2023-09-03T01:38:27.543Z,18.60
2023-09-03T01:40:59.040Z,20.25
2023-09-03T01:43:25.657Z,19.63
2023-09-03T01:46:13.860Z,18.23
2023-09-03T01:48:52.538Z,21.85
2023-09-03T01:51:31.196Z,19.55
2023-09-03T01:54:00.588Z,19.40
2023-09-03T01:56:28.921Z,19.50
2023-09-03T01:59:00.532Z,17.88
2023-09-03T02:01:31.736Z,22.17
2023-09-03T02:03:59.070Z,18.98
2023-09-03T02:06:25.572Z,20.90
2023-09-03T02:08:52.088Z,20.17
2023-09-03T02:11:18.711Z,18.05
2023-09-03T02:13:45.549Z,18.42
2023-09-03T02:16:11.969Z,17.80
2023-09-03T02:18:38.897Z,19.17
2023-09-03T02:21:05.332Z,15.82
2023-09-03T02:23:32.067Z,17.77
2023-09-03T02:26:00.756Z,16.08
2023-09-03T02:28:27.330Z,16.83
2023-09-03T02:30:53.973Z,17.23
2023-09-03T02:33:20.650Z,17.20
2023-09-03T02:35:48.807Z,15.27
2023-09-03T02:38:15.274Z,17.95
2023-09-03T02:40:41.886Z,17.98
2023-09-03T02:43:08.408Z,16.98
2023-09-03T02:45:34.894Z,18.05
2023-09-03T02:48:01.401Z,18.70
2023-09-03T02:50:28.534Z,17.83
2023-09-03T02:52:54.975Z,17.75
2023-09-03T02:55:21.544Z,17.65
2023-09-03T02:57:48.008Z,17.90
2023-09-03T03:00:15.258Z,18.70
2023-09-03T03:02:42.452Z,20.95
2023-09-03T03:05:09.517Z,16.88
2023-09-03T03:07:39.072Z,17.13
2023-09-03T03:10:06.102Z,19.40
2023-09-03T03:12:32.605Z,17.48
2023-09-03T03:14:59.323Z,18.83
2023-09-03T03:17:25.823Z,19.83
2023-09-03T03:19:53.030Z,17.55
2023-09-03T03:22:20.785Z,17.05
2023-09-03T03:24:47.734Z,17.88
2023-09-03T03:27:15.014Z,16.92
2023-09-03T03:29:41.442Z,18.27
2023-09-03T03:32:08.934Z,19.13
2023-09-03T03:34:42.626Z,19.80
2023-09-03T03:37:11.570Z,18.27
2023-09-03T03:39:38.024Z,18.58
2023-09-03T03:42:05.522Z,17.90
2023-09-03T03:44:32.188Z,17.90
2023-09-03T03:46:58.757Z,20.23
2023-09-03T03:49:25.237Z,18.15
2023-09-03T03:51:52.763Z,19.27
2023-09-03T03:54:19.233Z,16.85
2023-09-03T03:56:45.772Z,18.08
2023-09-03T03:59:12.267Z,17.98
2023-09-03T04:01:39.477Z,17.35
2023-09-03T04:04:06.394Z,21.27
2023-09-03T04:06:32.997Z,16.65
2023-09-03T04:08:59.497Z,18.65
2023-09-03T04:11:26.464Z,17.08
2023-09-03T04:13:52.953Z,18.33
2023-09-03T04:16:21.797Z,16.27
2023-09-03T04:18:52.845Z,18.83
2023-09-03T04:21:19.817Z,15.00
2023-09-03T04:23:46.267Z,16.92
2023-09-03T04:26:12.862Z,16.92
2023-09-03T04:28:50.129Z,15.77
2023-09-03T04:31:16.731Z,16.65
2023-09-03T04:33:44.110Z,15.57
2023-09-03T04:36:13.077Z,16.10
2023-09-03T04:38:39.943Z,17.10
2023-09-03T04:41:07.085Z,18.92
2023-09-03T04:44:10.150Z,17.38
2023-09-03T04:46:49.960Z,17.30
2023-09-03T04:49:18.789Z,16.30
2023-09-03T04:51:45.251Z,18.40
2023-09-03T04:54:13.379Z,16.67
2023-09-03T04:56:41.070Z,18.05
2023-09-03T04:59:09.499Z,18.58
2023-09-03T05:01:36.871Z,18.25
2023-09-03T05:04:04.523Z,17.23
2023-09-03T05:06:31.677Z,17.55
2023-09-03T05:08:59.376Z,18.02
2023-09-03T05:11:27.135Z,19.00
2023-09-03T05:13:53.616Z,18.83
2023-09-03T05:16:20.334Z,19.13
2023-09-03T05:18:47.728Z,21.27
2023-09-03T05:21:14.890Z,19.40
2023-09-03T05:23:41.413Z,20.42
2023-09-03T05:26:08.457Z,19.65
2023-09-03T05:28:38.072Z,19.63
2023-09-03T05:31:04.555Z,22.02
2023-09-03T05:33:32.905Z,19.83
2023-09-03T05:35:59.380Z,19.63
2023-09-03T05:38:25.952Z,19.67
2023-09-03T05:40:52.433Z,20.58
2023-09-03T05:43:20.062Z,20.67
2023-09-03T05:45:49.886Z,20.02
2023-09-03T05:48:16.692Z,21.10
2023-09-03T05:50:43.371Z,21.88
2023-09-03T05:53:10.831Z,21.55
2023-09-03T05:55:40.389Z,20.80
2023-09-03T05:58:07.577Z,21.63
2023-09-03T06:00:34.704Z,23.90
2023-09-03T06:03:01.311Z,25.42
2023-09-03T06:05:29.017Z,22.75
2023-09-03T06:07:58.690Z,25.40
2023-09-03T06:10:26.171Z,25.98
2023-09-03T06:12:53.067Z,26.95
2023-09-03T06:15:19.657Z,24.70
2023-09-03T06:17:50.687Z,25.98
2023-09-03T06:20:17.383Z,30.08
2023-09-03T06:22:43.836Z,27.88
2023-09-03T06:25:10.412Z,27.95
2023-09-03T06:27:36.831Z,26.13
2023-09-03T06:30:04.192Z,29.58
2023-09-03T06:32:32.030Z,26.48
2023-09-03T06:34:58.749Z,27.50
2023-09-03T06:37:25.367Z,29.33
2023-09-03T06:39:51.774Z,32.75
2023-09-03T06:42:18.216Z,33.63
2023-09-03T06:44:44.620Z,27.00
2023-09-03T06:47:11.103Z,30.92
2023-09-03T06:49:37.608Z,29.63
2023-09-03T06:52:04.331Z,29.20
2023-09-03T06:54:30.788Z,27.00
2023-09-03T06:56:57.557Z,30.55
2023-09-03T06:59:34.078Z,30.50
2023-09-03T07:02:01.475Z,31.27
2023-09-03T07:04:28.053Z,30.40
2023-09-03T07:06:55.077Z,30.88
2023-09-03T07:09:21.514Z,32.28
2023-09-03T07:11:47.949Z,34.42
2023-09-03T07:14:14.369Z,31.65
2023-09-03T07:16:40.918Z,35.47
2023-09-03T07:19:07.438Z,36.63
2023-09-03T07:21:34.036Z,33.00
2023-09-03T07:24:00.606Z,32.55
2023-09-03T07:26:27.044Z,33.85
2023-09-03T07:28:53.480Z,33.33
2023-09-03T07:31:20.001Z,29.13
2023-09-03T07:33:46.613Z,31.52
2023-09-03T07:36:13.105Z,33.05
2023-09-03T07:38:40.029Z,31.90
2023-09-03T07:41:06.859Z,30.55
2023-09-03T07:43:35.068Z,30.55
2023-09-03T07:46:01.557Z,33.35
2023-09-03T07:48:28.127Z,33.28
2023-09-03T07:50:54.642Z,34.95
2023-09-03T07:53:21.386Z,31.10
2023-09-03T07:55:47.930Z,30.90
2023-09-03T07:58:14.890Z,32.17
2023-09-03T08:00:41.794Z,34.20
2023-09-03T08:03:08.309Z,30.13
2023-09-03T08:05:34.779Z,30.65
2023-09-03T08:08:01.622Z,30.83
2023-09-03T08:10:28.202Z,35.85
2023-09-03T08:12:54.689Z,33.55
2023-09-03T08:15:33.496Z,29.70
2023-09-03T08:18:07.796Z,28.23
2023-09-03T08:20:34.395Z,31.35
2023-09-03T08:23:00.819Z,30.50
2023-09-03T08:25:28.789Z,30.63
2023-09-03T08:27:55.221Z,28.45
2023-09-03T08:30:22.154Z,27.88
2023-09-03T08:32:48.619Z,29.90
2023-09-03T08:35:15.116Z,30.27
2023-09-03T08:37:41.576Z,31.13
2023-09-03T08:40:08.713Z,28.92
2023-09-03T08:42:38.266Z,26.73
2023-09-03T08:45:05.953Z,25.58
2023-09-03T08:47:38.292Z,26.17
2023-09-03T08:50:05.894Z,28.60
2023-09-03T08:52:33.851Z,27.27
2023-09-03T08:55:02.135Z,26.63
2023-09-03T08:57:31.613Z,25.70
2023-09-03T08:59:58.304Z,25.73
2023-09-03T09:02:27.593Z,23.67
2023-09-03T09:04:54.197Z,24.42
2023-09-03T09:07:21.173Z,22.50
2023-09-03T09:09:49.743Z,23.75
2023-09-03T09:12:51.435Z,23.38
2023-09-03T09:15:18.011Z,23.25
2023-09-03T09:17:45.321Z,23.05
2023-09-03T09:20:14.543Z,21.58
2023-09-03T09:22:42.556Z,22.85
2023-09-03T09:25:10.622Z,17.85
2023-09-03T09:27:43.077Z,19.55
2023-09-03T09:30:13.106Z,17.08
2023-09-03T09:32:41.578Z,19.25
2023-09-03T09:35:09.071Z,17.02
2023-09-03T09:37:40.692Z,14.02
2023-09-03T09:40:10.376Z,16.17
2023-09-03T09:42:53.617Z,15.70
2023-09-03T09:45:20.075Z,15.00
2023-09-03T09:47:50.603Z,12.23
2023-09-03T09:50:32.436Z,14.77
2023-09-03T09:52:58.901Z,13.65
2023-09-03T09:55:25.721Z,13.82
2023-09-03T09:57:52.249Z,14.23
2023-09-03T10:00:33.149Z,14.85
2023-09-03T10:03:00.183Z,13.48
2023-09-03T10:05:27.284Z,14.30
2023-09-03T10:07:54.735Z,14.00
2023-09-03T10:10:21.614Z,12.05
2023-09-03T10:12:48.158Z,11.88
2023-09-03T10:15:15.837Z,13.52
2023-09-03T10:17:50.025Z,12.75
2023-09-03T10:20:17.140Z,13.63
2023-09-03T10:22:47.588Z,11.45
2023-09-03T10:25:17.251Z,12.85
2023-09-03T10:27:50.427Z,12.60
2023-09-03T10:32:46.243Z,13.20
2023-09-03T10:35:13.960Z,13.35
2023-09-03T10:37:43.420Z,10.45
2023-09-03T10:40:23.997Z,12.23
2023-09-03T10:42:52.584Z,10.65
2023-09-03T10:45:19.481Z,10.35
2023-09-03T10:48:02.924Z,12.93
2023-09-03T10:53:42.220Z,12.85
2023-09-03T10:56:14.764Z,11.10
2023-09-03T10:59:01.492Z,10.40
2023-09-03T11:01:34.416Z,10.15
2023-09-03T11:04:04.760Z,11.35
2023-09-03T11:06:35.597Z,9.88
2023-09-03T11:09:01.975Z,11.10
2023-09-03T11:11:34.520Z,11.55
2023-09-03T11:14:01.441Z,15.13
2023-09-03T11:16:32.009Z,13.90
2023-09-03T11:18:59.196Z,12.65
2023-09-03T11:21:26.646Z,13.75
2023-09-03T11:24:00.574Z,14.55
2023-09-03T11:26:28.348Z,19.25
2023-09-03T11:28:54.867Z,18.58
2023-09-03T11:31:21.801Z,15.05
2023-09-03T11:33:48.835Z,15.65
2023-09-03T11:36:15.467Z,12.80
2023-09-03T11:38:43.026Z,14.07
2023-09-03T11:41:09.663Z,12.25
2023-09-03T11:43:38.091Z,10.02
2023-09-03T11:46:13.039Z,9.82
2023-09-03T11:48:40.185Z,10.15
2023-09-03T11:51:06.904Z,9.60
2023-09-03T11:53:41.819Z,6.85
2023-09-03T11:56:12.115Z,7.18
2023-09-03T11:58:40.068Z,6.82
2023-09-03T12:01:07.851Z,8.38
2023-09-03T12:03:34.879Z,7.78
2023-09-03T12:06:04.098Z,5.85
2023-09-03T12:08:32.444Z,6.43
2023-09-03T12:10:59.363Z,6.25
2023-09-03T12:13:36.835Z,7.10
2023-09-03T12:16:12.598Z,6.15
2023-09-03T12:18:39.742Z,5.65
2023-09-03T12:21:09.378Z,6.65
2023-09-03T12:23:36.524Z,7.38
2023-09-03T12:26:03.579Z,6.15
2023-09-03T12:28:35.531Z,6.13
2023-09-03T12:31:04.419Z,7.43
2023-09-03T12:33:34.143Z,6.75
2023-09-03T12:36:11.951Z,6.43
2023-09-03T12:38:57.131Z,6.45
2023-09-03T12:41:25.997Z,6.68
2023-09-03T12:43:53.583Z,6.43
2023-09-03T12:46:20.727Z,7.38
2023-09-03T12:48:47.569Z,6.15
2023-09-03T12:51:16.941Z,6.68
2023-09-03T12:53:45.716Z,6.72
2023-09-03T12:56:13.225Z,5.07
2023-09-03T12:58:40.299Z,4.80
2023-09-03T13:01:10.969Z,4.82
2023-09-03T13:03:37.940Z,4.53
2023-09-03T13:06:04.959Z,6.40
2023-09-03T13:08:33.356Z,5.10
2023-09-03T13:11:01.216Z,5.28
2023-09-03T13:13:29.013Z,8.52
2023-09-03T13:15:56.307Z,4.53
2023-09-03T13:18:23.534Z,5.20
2023-09-03T13:20:50.087Z,3.97
2023-09-03T13:23:16.616Z,4.10
2023-09-03T13:25:43.169Z,4.90
2023-09-03T13:28:13.600Z,3.53
2023-09-03T13:30:45.262Z,3.58
2023-09-03T13:33:16.943Z,4.60
2023-09-03T13:35:43.538Z,4.70
2023-09-03T13:38:10.028Z,5.10
2023-09-03T13:40:39.765Z,5.05
2023-09-03T13:43:06.764Z,4.75
2023-09-03T13:45:33.346Z,5.28
2023-09-03T13:48:00.038Z,4.70
2023-09-03T13:50:28.748Z,4.40
2023-09-03T13:52:57.402Z,4.22
2023-09-03T13:55:27.939Z,5.40
2023-09-03T13:57:54.808Z,6.18
2023-09-03T14:00:22.276Z,4.25
2023-09-03T14:02:49.462Z,5.60
2023-09-03T14:05:16.241Z,4.90
2023-09-03T14:07:42.767Z,4.50
2023-09-03T14:10:09.504Z,5.70
2023-09-03T14:12:35.999Z,4.53
2023-09-03T14:15:02.638Z,6.07
2023-09-03T14:17:30.260Z,4.90
2023-09-03T14:19:56.981Z,4.28
2023-09-03T14:22:23.482Z,5.03
2023-09-03T14:24:50.127Z,4.85
2023-09-03T14:27:16.575Z,4.05
2023-09-03T14:29:43.086Z,4.72
2023-09-03T14:32:09.763Z,5.88
2023-09-03T14:34:40.805Z,9.05
2023-09-03T14:37:07.398Z,5.15
2023-09-03T14:39:33.978Z,3.90
2023-09-03T14:42:01.202Z,4.63
2023-09-03T14:44:27.648Z,4.32
2023-09-03T14:46:54.113Z,4.38
2023-09-03T14:49:35.284Z,3.63
2023-09-03T14:52:02.047Z,4.80
2023-09-03T14:54:28.485Z,3.72
2023-09-03T14:56:54.922Z,3.88
2023-09-03T14:59:21.460Z,3.50
2023-09-03T15:01:47.983Z,4.05
2023-09-03T15:04:15.013Z,4.40
2023-09-03T15:06:41.892Z,4.88
2023-09-03T15:09:08.334Z,4.88
2023-09-03T15:11:34.893Z,5.10
2023-09-03T15:14:03.820Z,3.65
2023-09-03T15:16:34.935Z,5.35
2023-09-03T15:19:02.117Z,6.20
2023-09-03T15:21:30.082Z,5.88
2023-09-03T15:23:57.714Z,4.05
2023-09-03T15:26:24.180Z,3.67
2023-09-03T15:28:51.007Z,5.95
2023-09-03T15:31:17.546Z,5.15
2023-09-03T15:33:44.090Z,4.20
2023-09-03T15:36:10.626Z,5.57
2023-09-03T15:38:38.787Z,5.53
2023-09-03T15:41:05.551Z,6.50
2023-09-03T15:43:31.990Z,5.07
2023-09-03T15:45:58.546Z,11.38
2023-09-03T15:48:25.117Z,8.68
2023-09-03T15:50:51.556Z,3.60
2023-09-03T15:53:18.321Z,5.07
2023-09-03T15:55:44.793Z,3.80
2023-09-03T15:58:11.227Z,2.53
2023-09-03T16:00:39.833Z,3.08
2023-09-03T16:03:07.582Z,2.70
2023-09-03T16:05:34.644Z,2.72
2023-09-03T16:08:02.117Z,3.50
2023-09-03T16:10:29.510Z,3.83
2023-09-03T16:12:58.608Z,3.35
2023-09-03T16:15:26.491Z,2.90
2023-09-03T16:17:54.596Z,2.67
2023-09-03T16:20:22.767Z,3.03
2023-09-03T16:22:49.388Z,2.70
2023-09-03T16:25:16.037Z,4.13
2023-09-03T16:27:42.537Z,3.55
2023-09-03T16:30:10.101Z,3.05
2023-09-03T16:32:36.936Z,2.90
2023-09-03T16:35:03.953Z,3.53
2023-09-03T16:37:30.409Z,3.80
2023-09-03T16:39:58.880Z,3.60
2023-09-03T16:42:25.561Z,4.38
2023-09-03T16:44:56.818Z,4.15
2023-09-03T16:47:23.347Z,4.88
2023-09-03T16:49:52.198Z,4.28
2023-09-03T16:52:18.773Z,4.05
2023-09-03T16:54:45.717Z,3.50
2023-09-03T16:57:12.524Z,4.18
2023-09-03T16:59:42.739Z,3.45
2023-09-03T17:02:13.095Z,3.60
2023-09-03T17:04:43.261Z,3.92
2023-09-03T17:07:11.488Z,3.03
2023-09-03T17:09:39.770Z,3.15
2023-09-03T17:12:06.641Z,3.85
2023-09-03T17:14:33.395Z,2.65
2023-09-03T17:17:04.731Z,2.53
2023-09-03T17:19:31.457Z,3.20
2023-09-03T17:21:58.125Z,3.22
2023-09-03T17:24:24.722Z,3.42
2023-09-03T17:26:51.159Z,2.60
2023-09-03T17:29:17.616Z,3.38
2023-09-03T17:31:44.249Z,3.92
2023-09-03T17:34:10.699Z,4.10
2023-09-03T17:36:37.220Z,3.58
2023-09-03T17:39:04.107Z,2.97
2023-09-03T17:41:31.400Z,3.45
2023-09-03T17:43:57.865Z,5.00
2023-09-03T17:46:24.542Z,3.00
2023-09-03T17:48:51.204Z,3.42
2023-09-03T17:51:17.671Z,2.90
2023-09-03T17:53:44.136Z,4.03
2023-09-03T17:56:10.881Z,3.55
2023-09-03T17:58:37.633Z,3.50
2023-09-03T18:01:04.214Z,3.85
2023-09-03T18:03:31.428Z,3.28
2023-09-03T18:05:58.112Z,3.20
2023-09-03T18:08:25.250Z,3.63
2023-09-03T18:10:51.795Z,4.25
2023-09-03T18:13:18.604Z,3.17
2023-09-03T18:15:45.098Z,3.60
2023-09-03T18:18:11.602Z,3.75
2023-09-03T18:20:38.042Z,2.83
2023-09-03T18:23:05.207Z,2.85
2023-09-03T18:25:31.678Z,2.58
2023-09-03T18:27:58.147Z,5.95
2023-09-03T18:30:24.591Z,3.17
2023-09-03T18:32:51.100Z,3.40
2023-09-03T18:35:18.293Z,6.00
2023-09-03T18:37:45.063Z,3.38
2023-09-03T18:40:11.893Z,3.55
2023-09-03T18:42:38.357Z,3.63
2023-09-03T18:45:05.857Z,5.00
2023-09-03T18:47:32.390Z,4.45
2023-09-03T18:49:58.907Z,4.13
2023-09-03T18:52:25.364Z,3.63
2023-09-03T18:54:52.640Z,3.65
2023-09-03T18:57:19.192Z,4.05
2023-09-03T18:59:45.747Z,4.78
2023-09-03T19:02:16.752Z,4.32
2023-09-03T19:04:43.800Z,4.07
2023-09-03T19:07:12.323Z,3.10
2023-09-03T19:09:41.810Z,3.42
2023-09-03T19:12:14.672Z,3.28
2023-09-03T19:14:43.569Z,4.35
2023-09-03T19:17:10.536Z,5.25
2023-09-03T19:19:36.985Z,5.22
2023-09-03T19:22:03.601Z,4.30
2023-09-03T19:24:30.136Z,5.68
2023-09-03T19:26:56.725Z,4.70
2023-09-03T19:29:23.663Z,3.47
2023-09-03T19:31:51.190Z,5.40
2023-09-03T19:34:24.861Z,4.53
2023-09-03T19:36:51.888Z,4.28
2023-09-03T19:39:18.430Z,4.65
2023-09-03T19:41:44.989Z,4.35
2023-09-03T19:44:11.440Z,4.35
2023-09-03T19:46:37.908Z,3.90
2023-09-03T19:49:04.493Z,4.68
2023-09-03T19:51:30.979Z,3.78
2023-09-03T19:53:57.494Z,3.97
2023-09-03T19:56:23.965Z,4.00
2023-09-03T19:58:53.347Z,5.10
2023-09-03T20:01:21.536Z,3.67
2023-09-03T20:03:50.025Z,7.57
2023-09-03T20:06:16.668Z,3.97
2023-09-03T20:08:43.371Z,5.13
2023-09-03T20:11:14.652Z,3.75
2023-09-03T20:13:41.572Z,3.70
2023-09-03T20:16:08.760Z,4.68
2023-09-03T20:18:35.683Z,3.95
2023-09-03T20:21:03.094Z,3.90
2023-09-03T20:23:30.368Z,3.88
2023-09-03T20:26:03.858Z,3.35
2023-09-03T20:31:12.532Z,3.40
2023-09-03T20:33:39.102Z,3.70
2023-09-03T20:36:06.055Z,4.80
2023-09-03T20:38:32.601Z,3.40
2023-09-03T20:41:01.964Z,4.68
2023-09-03T20:43:28.430Z,4.82
2023-09-03T20:45:58.289Z,3.42
2023-09-03T20:48:25.059Z,3.40
2023-09-03T20:50:51.773Z,5.07
2023-09-03T20:53:18.245Z,5.43
2023-09-03T20:55:51.898Z,3.78
2023-09-03T20:58:19.146Z,5.28
2023-09-03T21:00:46.073Z,3.90
2023-09-03T21:03:12.825Z,4.22
2023-09-03T21:05:39.256Z,5.22
2023-09-03T21:08:06.293Z,4.80
2023-09-03T21:10:32.708Z,3.55
2023-09-03T21:12:59.114Z,4.55
2023-09-03T21:15:25.944Z,4.03
2023-09-03T21:17:52.581Z,4.40
2023-09-03T21:20:19.405Z,4.82
2023-09-03T21:22:45.846Z,5.85
2023-09-03T21:25:12.551Z,5.53
2023-09-03T21:27:39.032Z,6.32
2023-09-03T21:30:06.299Z,6.40
2023-09-03T21:32:32.844Z,5.95
2023-09-03T21:35:09.919Z,4.65
2023-09-03T21:37:42.762Z,4.55
2023-09-03T21:40:13.451Z,4.53
2023-09-03T21:42:40.265Z,4.63
2023-09-03T21:45:07.628Z,5.93
2023-09-03T21:47:34.287Z,4.88
2023-09-03T21:50:00.724Z,5.68
2023-09-03T21:52:29.028Z,5.03
2023-09-03T21:54:55.464Z,5.53
2023-09-03T21:57:21.952Z,4.30
2023-09-03T21:59:48.401Z,5.50
2023-09-03T22:02:14.906Z,4.88
2023-09-03T22:04:41.346Z,5.07
2023-09-03T22:07:07.829Z,4.97
2023-09-03T22:09:34.423Z,5.28
2023-09-03T22:12:00.833Z,5.15
2023-09-03T22:14:27.303Z,4.43
2023-09-03T22:16:53.785Z,4.63
2023-09-03T22:19:25.954Z,5.00
2023-09-03T22:21:55.089Z,7.05
2023-09-03T22:24:22.015Z,5.97
2023-09-03T22:26:48.564Z,7.38
2023-09-03T22:29:15.021Z,4.88
2023-09-03T22:31:41.508Z,6.40
2023-09-03T22:34:08.067Z,6.60
2023-09-03T22:36:34.568Z,6.13
2023-09-03T22:39:00.990Z,6.72
2023-09-03T22:41:27.507Z,6.90
2023-09-03T22:43:53.979Z,5.32
2023-09-03T22:46:21.560Z,5.75
2023-09-03T22:48:48.103Z,7.50
2023-09-03T22:51:14.536Z,7.18
2023-09-03T22:53:42.490Z,5.85
2023-09-03T22:56:10.222Z,6.18
2023-09-03T22:58:37.096Z,7.40
2023-09-03T23:01:04.759Z,5.72
2023-09-03T23:03:31.447Z,6.85
2023-09-03T23:05:58.716Z,6.45
2023-09-03T23:08:25.733Z,5.72
2023-09-03T23:10:52.444Z,5.80
2023-09-03T23:13:19.399Z,5.65
2023-09-03T23:15:46.313Z,5.97
2023-09-03T23:18:13.083Z,5.50
2023-09-03T23:20:39.811Z,5.75
2023-09-03T23:23:06.231Z,5.63
2023-09-03T23:25:32.643Z,6.30
2023-09-03T23:27:59.071Z,6.13
2023-09-03T23:30:26.865Z,6.45
2023-09-03T23:32:53.587Z,5.93
2023-09-03T23:35:20.198Z,6.95
2023-09-03T23:37:47.162Z,7.13
2023-09-03T23:40:14.017Z,5.60
2023-09-03T23:42:40.444Z,6.13
2023-09-03T23:45:07.551Z,6.13
2023-09-03T23:47:33.995Z,6.68
2023-09-03T23:50:00.537Z,7.90
2023-09-03T23:52:27.108Z,6.53
2023-09-03T23:54:53.670Z,6.30
2023-09-03T23:57:20.156Z,5.72
2023-09-03T23:59:46.855Z,5.70
